Travis Air Force Base
KSUU : now visible

Airfield :











YOU CAN JOIN US ON...

 
LOGIN :

Register | Disclaimer

   EN    FR    IT 

 









Legend :    VFR   Marginal VFR   IFR   Intensive IFR   Very Intensive IFR
Visi :
Ceiling :
>= 8 km
>= 3000ft
5 to 8 km
1000 to 3000 ft
1500m to 5 km
500 to 1000 ft
800 to 1500m
200 to 500 ft
< 800m
< 200 ft
Symbols :   Thunderstorms  Fog  Heavy snow  Heavy precipitations  Wind > 20 kt






- Airport Elevation : 62 ft


KSUU - Travis Air Force Base

CURRENT METAR :
  • 300055Z AUTO 25013KT 10SM CLR 30/09 A2997 RMK AO2 SLP155 T02950091

EXPIRED METARs :
  • 292355Z AUTO 26008KT 10SM CLR 32/M03 A2998 RMK AO2 SLP159 T03191035 10320 20264 57015
  • 292255Z AUTO 02014KT 10SM FEW190 32/M01 A2999 RMK AO2 SLP162 T03181011
  • 292155Z AUTO 02015KT 10SM CLR 31/00 A3001 RMK AO2 SLP169 T03110004
  • 292055Z AUTO 02014KT 10SM FEW200 30/03 A3002 RMK AO2 SLP172 T03020032 57011
  • 291955Z AUTO 03015G20KT 10SM FEW180 FEW210 29/04 A3004 RMK AO2 SLP179 T02900038

TAF AMD TAF KSUU
Valid from the 29 at 21:00 until the 31 at 01:00 UTC


292100Z 2921/3101 25010KT 9999 SKC WSCONDS QNH3002INS
TEMPO 2919/2923 35015G25KT
BECMG 3001/3002 25009KT 9999 SKC QNH2996INS
TEMPO 3016/3023 35015G25KT
BECMG 3022/3023 25009KT 9999 SKC QNH2990INS TX33/2923Z TN13/3013Z
KZOA FIR / North America



MET'MAP, your aeronautical weather chart ! - Copyright ORBIFLY December 2007 - Disclaimer

ORBIFLY MET'MAP TEAM :

Programming & Development : Alexandra Zaïnal
Original concept : Baudouin d'Aumeries
Technical & hardware support : Manuel Goepfert
Assistance : Marc-Olivier Méhu




SOURCES & CREDITS :

   NOAA       Earth
Advisory